createdAt,value
2022-08-17T00:00:34.437Z,96.80
2022-08-17T00:03:10.069Z,96.80
2022-08-17T00:05:43.739Z,97.00
2022-08-17T00:08:12.568Z,97.30
2022-08-17T00:10:41.212Z,97.80
2022-08-17T00:13:11.048Z,97.40
2022-08-17T00:15:39.711Z,97.40
2022-08-17T00:19:01.411Z,97.90
2022-08-17T00:20:58.704Z,97.90
2022-08-17T00:23:27.251Z,98.30
2022-08-17T00:25:55.914Z,98.60
2022-08-17T00:28:24.221Z,99.10
2022-08-17T00:30:54.085Z,99.40
2022-08-17T00:33:25.285Z,99.50
2022-08-17T00:35:54.723Z,99.50
2022-08-17T00:38:24.738Z,99.50
2022-08-17T00:40:55.879Z,99.30
2022-08-17T00:43:30.399Z,99.80
2022-08-17T00:45:58.701Z,99.90
2022-08-17T00:48:30.174Z,99.90
2022-08-17T00:51:03.964Z,99.90
2022-08-17T00:53:34.829Z,99.90
2022-08-17T00:56:05.604Z,99.90
2022-08-17T00:58:36.589Z,99.90
2022-08-17T01:01:07.640Z,99.90
2022-08-17T01:03:37.306Z,99.90
2022-08-17T01:06:09.105Z,99.90
2022-08-17T01:08:40.598Z,99.90
2022-08-17T01:11:09.196Z,99.90
2022-08-17T01:13:41.607Z,99.90
2022-08-17T01:16:15.980Z,99.90
2022-08-17T01:18:46.138Z,99.90
2022-08-17T01:21:21.363Z,99.90
2022-08-17T01:23:50.751Z,99.90
2022-08-17T01:26:19.604Z,99.90
2022-08-17T01:28:54.120Z,99.90
2022-08-17T01:31:25.613Z,99.90
2022-08-17T01:33:53.897Z,99.90
2022-08-17T01:36:22.499Z,99.90
2022-08-17T01:38:52.186Z,99.90
2022-08-17T01:41:22.716Z,99.90
2022-08-17T01:43:55.002Z,99.90
2022-08-17T01:46:26.992Z,99.90
2022-08-17T01:48:56.515Z,99.90
2022-08-17T01:51:25.465Z,99.90
2022-08-17T01:53:59.507Z,99.90
2022-08-17T01:56:28.763Z,99.90
2022-08-17T01:58:57.746Z,99.90
2022-08-17T02:01:27.865Z,99.90
2022-08-17T02:04:00.769Z,99.90
2022-08-17T02:06:31.393Z,99.90
2022-08-17T02:09:16.993Z,99.90
2022-08-17T02:11:46.268Z,99.90
2022-08-17T02:14:14.762Z,99.90
2022-08-17T02:16:43.221Z,99.90
2022-08-17T02:19:15.672Z,99.90
2022-08-17T02:21:47.760Z,99.90
2022-08-17T02:24:59.992Z,99.90
2022-08-17T02:27:09.598Z,99.90
2022-08-17T02:29:38.010Z,99.90
2022-08-17T02:32:06.730Z,99.90
2022-08-17T02:34:34.762Z,99.90
2022-08-17T02:37:02.767Z,99.90
2022-08-17T02:39:32.239Z,99.90
2022-08-17T02:42:04.121Z,99.90
2022-08-17T02:44:35.391Z,99.90
2022-08-17T02:47:08.606Z,99.90
2022-08-17T02:49:36.786Z,99.90
2022-08-17T02:52:06.679Z,99.90
2022-08-17T02:54:39.974Z,99.90
2022-08-17T02:57:09.066Z,99.90
2022-08-17T02:59:37.166Z,99.90
2022-08-17T03:02:05.736Z,99.90
2022-08-17T03:04:35.175Z,99.90
2022-08-17T03:07:04.199Z,99.90
2022-08-17T03:09:32.832Z,99.90
2022-08-17T03:12:07.389Z,99.90
2022-08-17T03:14:41.276Z,99.90
2022-08-17T03:17:11.303Z,99.90
2022-08-17T03:19:45.468Z,99.90
2022-08-17T03:22:37.215Z,99.90
2022-08-17T03:25:01.603Z,99.90
2022-08-17T03:27:31.634Z,99.90
2022-08-17T03:29:59.727Z,99.90
2022-08-17T03:32:27.992Z,99.90
2022-08-17T03:35:00.576Z,99.90
2022-08-17T03:37:28.610Z,99.90
2022-08-17T03:39:56.834Z,99.90
2022-08-17T03:42:32.460Z,99.90
2022-08-17T03:45:03.940Z,99.90
2022-08-17T03:47:49.334Z,99.90
2022-08-17T03:50:35.835Z,99.90
2022-08-17T03:53:24.470Z,99.90
2022-08-17T03:56:10.082Z,99.90
2022-08-17T03:58:38.293Z,99.90
2022-08-17T04:01:08.185Z,99.90
2022-08-17T04:03:36.238Z,99.90
2022-08-17T04:06:05.659Z,99.90
2022-08-17T04:08:34.073Z,99.90
2022-08-17T04:11:03.176Z,99.90
2022-08-17T04:13:31.181Z,99.90
2022-08-17T04:15:59.984Z,99.90
2022-08-17T04:18:29.522Z,99.90
2022-08-17T04:20:57.559Z,99.90
2022-08-17T04:23:32.651Z,99.90
2022-08-17T04:26:00.640Z,99.90
2022-08-17T04:28:28.825Z,99.90
2022-08-17T04:30:56.873Z,99.90
2022-08-17T04:33:28.373Z,99.90
2022-08-17T04:35:59.925Z,99.90
2022-08-17T04:38:29.953Z,99.90
2022-08-17T04:41:16.395Z,99.90
2022-08-17T04:43:46.584Z,99.90
2022-08-17T04:46:17.199Z,99.90
2022-08-17T04:48:46.918Z,99.90
2022-08-17T04:51:18.991Z,99.90
2022-08-17T04:53:53.954Z,99.90
2022-08-17T04:56:25.165Z,99.90
2022-08-17T04:58:57.315Z,99.90
2022-08-17T05:01:28.088Z,99.90
2022-08-17T05:03:59.074Z,99.90
2022-08-17T05:06:29.982Z,99.90
2022-08-17T05:08:59.071Z,99.90
2022-08-17T05:11:29.324Z,99.90
2022-08-17T05:13:58.829Z,99.90
2022-08-17T05:16:28.514Z,99.90
2022-08-17T05:18:58.625Z,99.90
2022-08-17T05:21:28.823Z,99.90
2022-08-17T05:23:58.549Z,99.90
2022-08-17T05:26:28.789Z,99.90
2022-08-17T05:29:00.414Z,99.90
2022-08-17T05:31:31.781Z,99.90
2022-08-17T05:34:00.050Z,99.90
2022-08-17T05:36:38.129Z,99.90
2022-08-17T05:39:16.873Z,99.70
2022-08-17T05:41:46.778Z,99.10
2022-08-17T05:44:14.850Z,98.70
2022-08-17T05:46:46.623Z,98.60
2022-08-17T05:49:18.100Z,97.90
2022-08-17T05:52:04.762Z,97.70
2022-08-17T05:54:48.334Z,96.90
2022-08-17T05:57:47.562Z,96.20
2022-08-17T06:00:31.185Z,95.20
2022-08-17T06:03:28.131Z,94.90
2022-08-17T06:06:07.092Z,94.80
2022-08-17T06:08:48.126Z,95.10
2022-08-17T06:11:28.179Z,95.00
2022-08-17T06:14:05.355Z,94.70
2022-08-17T06:16:37.322Z,94.50
2022-08-17T06:19:11.141Z,94.60
2022-08-17T06:21:43.327Z,94.50
2022-08-17T06:24:27.546Z,94.60
2022-08-17T06:26:58.142Z,94.50
2022-08-17T06:29:38.296Z,94.80
2022-08-17T06:32:08.709Z,95.00
2022-08-17T06:34:39.265Z,94.90
2022-08-17T06:37:21.282Z,94.80
2022-08-17T06:39:58.691Z,94.90
2022-08-17T06:43:02.847Z,95.40
2022-08-17T06:45:32.256Z,95.40
2022-08-17T06:48:08.571Z,95.40
2022-08-17T06:50:39.982Z,95.50
2022-08-17T06:53:25.380Z,95.40
2022-08-17T06:55:59.978Z,94.70
2022-08-17T06:58:31.355Z,94.40
2022-08-17T07:01:04.897Z,93.60
2022-08-17T07:03:38.137Z,93.70
2022-08-17T07:06:12.461Z,93.20
2022-08-17T07:08:51.297Z,93.10
2022-08-17T07:11:27.189Z,92.60
2022-08-17T07:14:16.931Z,92.10
2022-08-17T07:16:48.255Z,91.90
2022-08-17T07:19:17.811Z,92.10
2022-08-17T07:21:55.044Z,91.40
2022-08-17T07:24:35.648Z,91.20
2022-08-17T07:27:11.699Z,90.90
2022-08-17T07:29:44.046Z,91.50
2022-08-17T07:32:15.689Z,91.60
2022-08-17T07:35:05.143Z,91.40
2022-08-17T07:37:33.479Z,91.40
2022-08-17T07:40:19.738Z,91.10
2022-08-17T07:43:11.465Z,90.90
2022-08-17T07:46:24.538Z,90.70
2022-08-17T07:48:54.518Z,91.10
2022-08-17T07:51:26.244Z,91.30
2022-08-17T07:54:13.194Z,91.10
2022-08-17T07:56:46.013Z,91.00
2022-08-17T07:59:23.212Z,91.10
2022-08-17T08:07:29.534Z,91.20
2022-08-17T08:10:10.809Z,91.20
2022-08-17T08:12:41.130Z,91.40
2022-08-17T08:15:18.740Z,91.30
2022-08-17T08:17:51.327Z,91.50
2022-08-17T08:20:51.407Z,91.70
2022-08-17T08:23:16.914Z,91.90
2022-08-17T08:25:53.705Z,92.30
2022-08-17T08:28:31.030Z,92.70
2022-08-17T08:31:16.897Z,92.60
2022-08-17T08:33:56.375Z,92.90
2022-08-17T08:36:56.848Z,93.20
2022-08-17T08:39:37.970Z,93.10
2022-08-17T08:42:12.922Z,94.50
2022-08-17T08:45:00.952Z,94.90
2022-08-17T08:48:05.622Z,95.50
2022-08-17T08:50:47.671Z,96.20
2022-08-17T08:53:28.702Z,96.00
2022-08-17T08:56:04.042Z,95.40
2022-08-17T08:58:44.028Z,95.90
2022-08-17T09:01:21.997Z,95.60
2022-08-17T09:04:25.208Z,94.80
2022-08-17T09:07:05.403Z,94.70
2022-08-17T09:09:43.114Z,94.70
2022-08-17T09:12:22.316Z,94.60
2022-08-17T09:14:57.547Z,94.80
2022-08-17T09:17:35.623Z,94.60
2022-08-17T09:20:27.418Z,94.40
2022-08-17T09:23:02.992Z,94.60
2022-08-17T09:25:34.515Z,94.40
2022-08-17T09:28:06.327Z,93.80
2022-08-17T09:30:42.161Z,93.70
2022-08-17T09:33:12.507Z,93.50
2022-08-17T09:35:47.685Z,93.40
2022-08-17T09:38:27.072Z,93.30
2022-08-17T09:41:05.763Z,93.30
2022-08-17T09:43:40.351Z,93.10
2022-08-17T09:46:16.864Z,92.50
2022-08-17T09:48:51.713Z,92.50
2022-08-17T09:51:26.126Z,92.60
2022-08-17T09:53:54.431Z,92.30
2022-08-17T09:56:35.126Z,91.80
2022-08-17T09:59:27.500Z,91.50
2022-08-17T10:02:43.422Z,91.60
2022-08-17T10:05:18.732Z,91.80
2022-08-17T10:07:56.020Z,91.90
2022-08-17T10:10:32.525Z,91.40
2022-08-17T10:13:09.646Z,91.30
2022-08-17T10:15:48.295Z,90.90
2022-08-17T10:18:35.278Z,91.30
2022-08-17T10:21:25.098Z,90.60
2022-08-17T10:24:20.621Z,89.70
2022-08-17T10:26:56.800Z,90.30
2022-08-17T10:29:47.263Z,90.60
2022-08-17T10:32:28.340Z,90.10
2022-08-17T10:35:26.069Z,90.60
2022-08-17T10:38:29.442Z,88.90
2022-08-17T10:41:05.356Z,89.00
2022-08-17T10:44:37.251Z,88.10
2022-08-17T10:46:52.278Z,90.00
2022-08-17T10:49:34.191Z,89.00
2022-08-17T10:52:04.739Z,88.20
2022-08-17T10:54:39.654Z,86.10
2022-08-17T10:57:40.257Z,87.40
2022-08-17T11:01:11.447Z,87.20
2022-08-17T11:03:53.450Z,88.50
2022-08-17T11:06:26.510Z,87.80
2022-08-17T11:09:26.335Z,88.80
2022-08-17T11:12:21.840Z,91.20
2022-08-17T11:15:28.319Z,91.70
2022-08-17T11:18:22.254Z,91.80
2022-08-17T11:21:18.315Z,92.00
2022-08-17T11:24:11.671Z,92.40
2022-08-17T11:26:46.722Z,93.10
2022-08-17T11:29:24.814Z,93.90
2022-08-17T11:32:02.645Z,94.10
2022-08-17T11:34:33.137Z,94.20
2022-08-17T11:37:22.159Z,94.10
2022-08-17T11:40:07.290Z,94.00
2022-08-17T11:42:50.951Z,93.70
2022-08-17T11:45:54.198Z,93.60
2022-08-17T11:48:48.385Z,93.60
2022-08-17T11:51:34.761Z,93.60
2022-08-17T11:54:31.742Z,93.70
2022-08-17T11:56:59.036Z,93.50
2022-08-17T12:00:00.291Z,92.90
2022-08-17T12:02:47.797Z,92.00
2022-08-17T12:05:35.144Z,92.00
2022-08-17T12:08:18.573Z,91.60
2022-08-17T12:11:00.611Z,91.30
2022-08-17T12:13:39.610Z,91.40
2022-08-17T12:16:10.014Z,90.50
2022-08-17T12:18:39.885Z,90.50
2022-08-17T12:21:28.914Z,90.00
2022-08-17T12:24:05.369Z,89.00
2022-08-17T12:26:35.507Z,86.10
2022-08-17T12:29:05.824Z,88.80
2022-08-17T12:31:44.280Z,86.50
2022-08-17T12:34:19.007Z,83.70
2022-08-17T12:36:50.324Z,84.00
2022-08-17T12:39:24.948Z,84.00
2022-08-17T12:42:01.983Z,84.20
2022-08-17T12:44:32.306Z,82.60
2022-08-17T12:47:04.688Z,81.90
2022-08-17T12:49:35.611Z,80.00
2022-08-17T12:52:08.765Z,79.80
2022-08-17T12:54:50.569Z,79.40
2022-08-17T12:57:21.607Z,76.60
2022-08-17T12:59:53.025Z,73.80
2022-08-17T13:02:28.816Z,74.20
2022-08-17T13:04:58.202Z,73.70
2022-08-17T13:07:33.081Z,74.20
2022-08-17T13:10:02.665Z,72.30
2022-08-17T13:12:36.230Z,71.20
2022-08-17T13:15:04.907Z,71.10
2022-08-17T13:17:36.643Z,72.50
2022-08-17T13:20:14.779Z,69.30
2022-08-17T13:22:45.331Z,69.00
2022-08-17T13:25:17.912Z,68.70
2022-08-17T13:27:47.451Z,69.60
2022-08-17T13:30:22.514Z,70.40
2022-08-17T13:32:51.044Z,67.10
2022-08-17T13:35:49.954Z,66.10
2022-08-17T13:38:40.545Z,67.60
2022-08-17T13:41:35.142Z,68.80
2022-08-17T13:44:04.375Z,70.10
2022-08-17T13:46:34.245Z,68.50
2022-08-17T13:49:05.764Z,68.00
2022-08-17T13:51:42.650Z,69.10
2022-08-17T13:54:25.408Z,70.10
2022-08-17T13:57:01.561Z,70.80
2022-08-17T13:59:54.851Z,67.50
2022-08-17T14:02:27.630Z,66.20
2022-08-17T14:04:58.541Z,67.30
2022-08-17T14:07:35.600Z,69.50
2022-08-17T14:10:08.312Z,67.70
2022-08-17T14:12:40.810Z,68.80
2022-08-17T14:15:10.414Z,69.00
2022-08-17T14:17:39.264Z,68.40
2022-08-17T14:20:10.512Z,68.90
2022-08-17T14:22:42.122Z,68.90
2022-08-17T14:25:12.308Z,69.00
2022-08-17T14:27:52.878Z,68.20
2022-08-17T14:30:23.939Z,67.00
2022-08-17T14:32:52.805Z,68.40
2022-08-17T14:35:23.237Z,67.70
2022-08-17T14:37:51.855Z,68.10
2022-08-17T14:40:24.692Z,67.70
2022-08-17T14:42:56.105Z,66.70
2022-08-17T14:45:30.250Z,68.10
2022-08-17T14:48:04.098Z,68.50
2022-08-17T14:50:35.547Z,68.50
2022-08-17T14:53:04.541Z,68.00
2022-08-17T14:55:32.694Z,68.00
2022-08-17T14:58:02.127Z,66.80
2022-08-17T15:00:30.184Z,68.20
2022-08-17T15:03:00.278Z,67.60
2022-08-17T15:05:31.594Z,68.20
2022-08-17T15:08:00.905Z,67.80
2022-08-17T15:10:29.356Z,67.80
2022-08-17T15:12:58.155Z,68.50
2022-08-17T15:15:28.450Z,67.90
2022-08-17T15:17:57.202Z,67.70
2022-08-17T15:20:28.710Z,67.20
2022-08-17T15:22:59.061Z,68.90
2022-08-17T15:25:29.506Z,66.00
2022-08-17T15:27:58.208Z,64.80
2022-08-17T15:30:28.644Z,65.70
2022-08-17T15:32:58.953Z,66.00
2022-08-17T15:35:29.469Z,66.90
2022-08-17T15:38:09.773Z,66.00
2022-08-17T15:40:40.791Z,64.60
2022-08-17T15:43:10.419Z,65.50
2022-08-17T15:45:40.891Z,65.40
2022-08-17T15:48:09.544Z,65.10
2022-08-17T15:50:38.169Z,66.60
2022-08-17T15:53:06.434Z,66.50
2022-08-17T15:55:35.393Z,67.40
2022-08-17T15:58:03.681Z,68.60
2022-08-17T16:00:34.600Z,67.10
2022-08-17T16:03:59.392Z,67.10
2022-08-17T16:06:08.558Z,66.60
2022-08-17T16:08:41.566Z,67.40
2022-08-17T16:11:10.642Z,67.40
2022-08-17T16:13:39.681Z,68.50
2022-08-17T16:16:08.459Z,68.70
2022-08-17T16:18:39.433Z,68.30
2022-08-17T16:21:42.396Z,68.50
2022-08-17T16:24:13.382Z,68.50
2022-08-17T16:26:43.148Z,68.10
2022-08-17T16:29:11.314Z,68.40
2022-08-17T16:31:39.520Z,69.20
2022-08-17T16:34:16.731Z,68.70
2022-08-17T16:36:54.762Z,69.00
2022-08-17T16:39:25.552Z,69.60
2022-08-17T16:41:53.591Z,69.40
2022-08-17T16:44:22.847Z,69.70
2022-08-17T16:46:51.225Z,69.80
2022-08-17T16:49:35.969Z,70.20
2022-08-17T16:52:07.830Z,70.30
2022-08-17T16:54:38.089Z,70.90
2022-08-17T16:57:06.506Z,71.20
2022-08-17T16:59:40.925Z,71.00
2022-08-17T17:02:14.405Z,71.20
2022-08-17T17:04:49.104Z,71.90
2022-08-17T17:07:41.173Z,71.70
2022-08-17T17:10:11.907Z,72.00
2022-08-17T17:13:02.939Z,71.90
2022-08-17T17:15:39.653Z,71.90
2022-08-17T17:18:13.222Z,72.20
2022-08-17T17:20:48.712Z,72.90
2022-08-17T17:23:29.118Z,72.70
2022-08-17T17:26:04.123Z,73.00
2022-08-17T17:28:40.564Z,73.30
2022-08-17T17:31:14.936Z,73.40
2022-08-17T17:33:48.353Z,73.70
2022-08-17T17:36:25.198Z,73.60
2022-08-17T17:38:56.975Z,73.50
2022-08-17T17:41:30.037Z,74.20
2022-08-17T17:44:03.796Z,74.00
2022-08-17T17:46:35.619Z,74.30
2022-08-17T17:49:03.653Z,74.40
2022-08-17T17:52:06.281Z,74.60
2022-08-17T17:54:39.317Z,75.00
2022-08-17T17:57:16.093Z,75.30
2022-08-17T17:59:53.007Z,75.60
2022-08-17T18:02:51.274Z,75.80
2022-08-17T18:05:34.506Z,75.60
2022-08-17T18:08:15.707Z,75.80
2022-08-17T18:11:00.394Z,75.80
2022-08-17T18:13:50.115Z,76.60
2022-08-17T18:16:19.867Z,75.90
2022-08-17T18:18:50.073Z,75.50
2022-08-17T18:21:22.023Z,75.60
2022-08-17T18:23:55.672Z,76.00
2022-08-17T18:26:45.052Z,76.40
2022-08-17T18:29:31.261Z,77.50
2022-08-17T18:32:20.545Z,77.90
2022-08-17T18:34:51.487Z,77.40
2022-08-17T18:37:39.533Z,77.90
2022-08-17T18:40:38.037Z,78.60
2022-08-17T18:43:11.180Z,79.30
2022-08-17T18:45:43.921Z,79.70
2022-08-17T18:48:28.630Z,80.20
2022-08-17T18:50:58.840Z,80.40
2022-08-17T18:53:34.273Z,80.60
2022-08-17T18:56:25.656Z,80.30
2022-08-17T18:59:03.402Z,80.20
2022-08-17T19:01:52.572Z,80.50
2022-08-17T19:04:37.191Z,80.80
2022-08-17T19:07:12.422Z,81.40
2022-08-17T19:09:46.487Z,82.20
2022-08-17T19:12:27.378Z,83.20
2022-08-17T19:14:57.996Z,83.10
2022-08-17T19:17:35.424Z,84.20
2022-08-17T19:20:11.459Z,84.70
2022-08-17T19:22:57.462Z,85.50
2022-08-17T19:25:28.749Z,85.20
2022-08-17T19:28:21.556Z,85.80
2022-08-17T19:30:51.800Z,86.00
2022-08-17T19:33:20.523Z,86.40
2022-08-17T19:35:57.386Z,86.70
2022-08-17T19:38:38.486Z,87.10
2022-08-17T19:41:12.985Z,87.30
2022-08-17T19:44:13.207Z,87.50
2022-08-17T19:46:50.564Z,87.60
2022-08-17T19:49:41.109Z,87.50
2022-08-17T19:52:26.038Z,87.80
2022-08-17T19:54:59.470Z,88.40
2022-08-17T19:57:37.448Z,88.60
2022-08-17T20:00:11.536Z,88.90
2022-08-17T20:02:46.593Z,88.80
2022-08-17T20:05:18.093Z,89.10
2022-08-17T20:07:53.651Z,89.30
2022-08-17T20:10:29.794Z,89.60
2022-08-17T20:13:06.400Z,89.90
2022-08-17T20:15:40.484Z,89.90
2022-08-17T20:18:17.396Z,89.90
2022-08-17T20:20:54.836Z,90.20
2022-08-17T20:23:32.044Z,90.00
2022-08-17T20:26:09.221Z,90.00
2022-08-17T20:28:39.902Z,90.30
2022-08-17T20:31:37.819Z,90.20
2022-08-17T20:34:37.027Z,90.40
2022-08-17T20:37:09.095Z,90.50
2022-08-17T20:39:41.203Z,90.50
2022-08-17T20:42:31.857Z,90.60
2022-08-17T20:45:03.053Z,91.00
2022-08-17T20:47:35.093Z,91.20
2022-08-17T20:50:08.276Z,91.70
2022-08-17T20:52:52.916Z,91.70
2022-08-17T20:55:53.394Z,91.80
2022-08-17T20:58:47.230Z,91.90
2022-08-17T21:01:24.234Z,92.00
2022-08-17T21:03:54.099Z,92.20
2022-08-17T21:06:26.057Z,92.10
2022-08-17T21:08:58.968Z,92.10
2022-08-17T21:12:05.051Z,92.30
2022-08-17T21:14:59.747Z,92.10
2022-08-17T21:17:41.864Z,92.00
2022-08-17T21:20:23.687Z,91.80
2022-08-17T21:23:05.363Z,91.50
2022-08-17T21:25:53.342Z,91.40
2022-08-17T21:28:29.943Z,91.50
2022-08-17T21:31:08.542Z,91.20
2022-08-17T21:33:39.016Z,91.20
2022-08-17T21:36:27.460Z,91.20
2022-08-17T21:39:13.479Z,91.60
2022-08-17T21:41:48.128Z,92.00
2022-08-17T21:44:27.849Z,92.30
2022-08-17T21:47:16.053Z,92.70
2022-08-17T21:49:44.393Z,93.40
2022-08-17T21:52:15.715Z,93.40
2022-08-17T21:54:52.462Z,93.80
2022-08-17T21:57:23.310Z,94.30
2022-08-17T21:59:57.230Z,95.10
2022-08-17T22:02:28.000Z,95.70
2022-08-17T22:05:02.131Z,96.30
2022-08-17T22:07:40.693Z,96.90
2022-08-17T22:10:30.957Z,97.40
2022-08-17T22:13:16.392Z,98.20
2022-08-17T22:15:47.926Z,98.80
2022-08-17T22:18:20.934Z,99.20
2022-08-17T22:20:51.708Z,99.50
2022-08-17T22:23:44.676Z,99.90
2022-08-17T22:26:17.180Z,99.90
2022-08-17T22:28:48.932Z,99.90
2022-08-17T22:31:19.104Z,99.90
2022-08-17T22:33:49.782Z,99.90
2022-08-17T22:36:29.221Z,99.90
2022-08-17T22:38:59.303Z,99.90
2022-08-17T22:41:42.678Z,99.90
2022-08-17T22:44:29.646Z,99.90
2022-08-17T22:47:06.713Z,99.90
2022-08-17T22:49:53.278Z,99.90
2022-08-17T22:52:35.488Z,99.90
2022-08-17T22:55:30.516Z,99.90
2022-08-17T22:58:18.463Z,99.90
2022-08-17T23:00:48.472Z,99.90
2022-08-17T23:03:19.356Z,99.90
2022-08-17T23:05:50.545Z,99.90
2022-08-17T23:08:21.386Z,99.90
2022-08-17T23:10:50.288Z,99.90
2022-08-17T23:13:21.329Z,99.90
2022-08-17T23:15:51.328Z,99.90
2022-08-17T23:18:19.411Z,99.90
2022-08-17T23:20:47.781Z,99.90
2022-08-17T23:23:18.021Z,99.90
2022-08-17T23:25:49.196Z,99.90
2022-08-17T23:28:17.284Z,99.90
2022-08-17T23:30:48.544Z,99.90
2022-08-17T23:33:21.309Z,99.90
2022-08-17T23:35:49.547Z,99.90
2022-08-17T23:38:17.645Z,99.90
2022-08-17T23:40:45.837Z,99.90
2022-08-17T23:43:25.541Z,99.90
2022-08-17T23:45:59.724Z,99.90
2022-08-17T23:48:36.793Z,99.90
2022-08-17T23:51:09.202Z,99.90
2022-08-17T23:53:40.382Z,99.90
2022-08-17T23:56:11.179Z,99.90
2022-08-17T23:58:40.159Z,99.90
